createdAt,value
2023-05-21T00:00:39.471Z,59.34
2023-05-21T00:03:14.565Z,66.04
2023-05-21T00:05:49.819Z,62.85
2023-05-21T00:08:24.591Z,63.70
2023-05-21T00:10:58.355Z,70.43
2023-05-21T00:13:28.349Z,68.14
2023-05-21T00:16:03.089Z,73.92
2023-05-21T00:18:36.064Z,68.41
2023-05-21T00:21:15.122Z,68.60
2023-05-21T00:23:49.623Z,64.84
2023-05-21T00:26:19.955Z,61.83
2023-05-21T00:28:57.175Z,62.68
2023-05-21T00:31:27.588Z,64.52
2023-05-21T00:33:57.829Z,66.91
2023-05-21T00:36:29.041Z,65.43
2023-05-21T00:38:58.794Z,66.21
2023-05-21T00:41:28.574Z,68.93
2023-05-21T00:44:01.366Z,69.87
2023-05-21T00:46:34.909Z,71.22
2023-05-21T00:49:04.618Z,67.49
2023-05-21T00:51:33.771Z,65.76
2023-05-21T00:54:03.333Z,63.09
2023-05-21T00:56:33.694Z,76.41
2023-05-21T00:59:06.474Z,68.48
2023-05-21T01:01:37.781Z,71.57
2023-05-21T01:04:06.991Z,65.87
2023-05-21T01:06:36.251Z,67.39
2023-05-21T01:09:07.780Z,64.92
2023-05-21T01:11:43.706Z,66.02
2023-05-21T01:14:15.592Z,65.77
2023-05-21T01:16:49.106Z,65.80
2023-05-21T01:19:26.943Z,67.59
2023-05-21T01:22:03.572Z,68.99
2023-05-21T01:24:33.121Z,67.06
2023-05-21T01:27:04.051Z,66.97
2023-05-21T01:29:33.204Z,65.69
2023-05-21T01:32:26.521Z,66.93
2023-05-21T01:35:16.432Z,62.42
2023-05-21T01:37:59.185Z,58.65
2023-05-21T01:40:45.890Z,59.39
2023-05-21T01:43:16.670Z,57.49
2023-05-21T01:45:48.655Z,56.60
2023-05-21T01:48:19.609Z,56.59
2023-05-21T01:50:49.382Z,52.88
2023-05-21T01:53:18.710Z,52.43
2023-05-21T01:55:47.899Z,53.18
2023-05-21T01:58:17.860Z,52.80
2023-05-21T02:00:47.559Z,52.67
2023-05-21T02:03:17.186Z,54.91
2023-05-21T02:05:46.742Z,52.88
2023-05-21T02:08:16.213Z,53.07
2023-05-21T02:10:45.243Z,52.83
2023-05-21T02:13:14.199Z,53.00
2023-05-21T02:15:43.479Z,53.98
2023-05-21T02:18:12.570Z,55.50
2023-05-21T02:20:41.748Z,56.18
2023-05-21T02:23:10.897Z,55.65
2023-05-21T02:25:40.387Z,55.48
2023-05-21T02:28:09.341Z,55.98
2023-05-21T02:30:38.683Z,56.57
2023-05-21T02:33:09.960Z,56.42
2023-05-21T02:35:39.346Z,56.51
2023-05-21T02:38:10.065Z,55.58
2023-05-21T02:40:39.176Z,56.25
2023-05-21T02:43:08.146Z,56.51
2023-05-21T02:45:37.405Z,58.50
2023-05-21T02:48:06.963Z,57.67
2023-05-21T02:50:40.845Z,58.18
2023-05-21T02:53:10.089Z,58.44
2023-05-21T02:55:39.386Z,60.38
2023-05-21T02:58:08.512Z,58.42
2023-05-21T03:00:37.776Z,52.44
2023-05-21T03:03:07.322Z,54.63
2023-05-21T03:05:37.706Z,53.21
2023-05-21T03:08:06.960Z,52.57
2023-05-21T03:10:36.077Z,55.96
2023-05-21T03:13:09.669Z,56.91
2023-05-21T03:15:39.931Z,55.00
2023-05-21T03:18:12.713Z,56.57
2023-05-21T03:20:47.623Z,57.12
2023-05-21T03:23:17.141Z,58.70
2023-05-21T03:25:46.927Z,57.84
2023-05-21T03:28:18.506Z,56.93
2023-05-21T03:30:52.888Z,57.55
2023-05-21T03:33:33.896Z,57.45
2023-05-21T03:36:08.508Z,58.48
2023-05-21T03:38:39.385Z,61.76
2023-05-21T03:41:10.082Z,61.71
2023-05-21T03:43:39.492Z,62.27
2023-05-21T03:46:08.576Z,65.68
2023-05-21T03:49:02.296Z,67.50
2023-05-21T03:51:33.698Z,69.65
2023-05-21T03:54:02.943Z,72.73
2023-05-21T03:56:32.654Z,77.96
2023-05-21T03:59:02.335Z,79.88
2023-05-21T04:01:33.866Z,81.07
2023-05-21T04:04:04.183Z,73.98
2023-05-21T04:06:34.021Z,75.69
2023-05-21T04:09:03.121Z,76.68
2023-05-21T04:11:32.319Z,73.51
2023-05-21T04:14:03.199Z,77.08
2023-05-21T04:16:35.650Z,71.22
2023-05-21T04:19:07.458Z,72.57
2023-05-21T04:21:40.010Z,70.51
2023-05-21T04:24:09.470Z,70.30
2023-05-21T04:26:51.345Z,69.48
2023-05-21T04:29:22.117Z,74.65
2023-05-21T04:31:55.363Z,75.10
2023-05-21T04:34:25.836Z,75.88
2023-05-21T04:36:54.996Z,74.06
2023-05-21T04:39:23.987Z,78.50
2023-05-21T04:41:55.466Z,76.21
2023-05-21T04:44:25.689Z,77.94
2023-05-21T04:46:58.251Z,79.43
2023-05-21T04:49:28.242Z,81.88
2023-05-21T04:51:57.969Z,83.45
2023-05-21T04:54:26.996Z,89.70
2023-05-21T04:56:56.772Z,90.36
2023-05-21T04:59:25.866Z,91.52
2023-05-21T05:01:54.756Z,91.02
2023-05-21T05:04:24.298Z,85.67
2023-05-21T05:06:53.384Z,86.61
2023-05-21T05:09:27.517Z,83.80
2023-05-21T05:11:56.717Z,88.19
2023-05-21T05:14:27.145Z,89.43
2023-05-21T05:17:00.706Z,91.56
2023-05-21T05:19:30.578Z,91.92
2023-05-21T05:21:59.785Z,98.15
2023-05-21T05:24:29.853Z,100.00
2023-05-21T05:26:58.923Z,100.00
2023-05-21T05:29:27.897Z,100.00
2023-05-21T05:31:56.919Z,100.00
2023-05-21T05:34:25.941Z,100.00
2023-05-21T05:36:55.019Z,100.00
2023-05-21T05:39:24.028Z,100.00
2023-05-21T05:41:53.550Z,100.00
2023-05-21T05:44:23.188Z,100.00
2023-05-21T05:46:52.710Z,100.00
2023-05-21T05:49:21.709Z,100.00
2023-05-21T05:51:50.729Z,100.00
2023-05-21T05:54:20.329Z,100.00
2023-05-21T05:56:49.357Z,100.00
2023-05-21T05:59:18.306Z,100.00
2023-05-21T06:01:51.014Z,100.00
2023-05-21T06:04:22.326Z,100.00
2023-05-21T06:06:51.770Z,100.00
2023-05-21T06:09:22.923Z,100.00
2023-05-21T06:11:51.968Z,100.00
2023-05-21T06:14:20.916Z,100.00
2023-05-21T06:16:50.855Z,100.00
2023-05-21T06:19:20.633Z,100.00
2023-05-21T06:21:49.947Z,100.00
2023-05-21T06:24:19.300Z,100.00
2023-05-21T06:26:48.662Z,100.00
2023-05-21T06:29:18.261Z,100.00
2023-05-21T06:31:49.538Z,100.00
2023-05-21T06:34:18.668Z,100.00
2023-05-21T06:36:48.378Z,100.00
2023-05-21T06:39:17.869Z,100.00
2023-05-21T06:41:47.309Z,100.00
2023-05-21T06:44:34.818Z,100.00
2023-05-21T06:47:27.093Z,100.00
2023-05-21T06:49:56.240Z,100.00
2023-05-21T06:52:27.514Z,100.00
2023-05-21T06:54:56.826Z,100.00
2023-05-21T06:57:28.298Z,100.00
2023-05-21T06:59:57.368Z,100.00
2023-05-21T07:02:26.717Z,100.00
2023-05-21T07:04:56.496Z,100.00
2023-05-21T07:07:25.534Z,100.00
2023-05-21T07:09:54.533Z,100.00
2023-05-21T07:12:23.512Z,100.00
2023-05-21T07:14:52.569Z,100.00
2023-05-21T07:17:22.326Z,100.00
2023-05-21T07:19:51.638Z,100.00
2023-05-21T07:22:20.719Z,100.00
2023-05-21T07:24:49.668Z,100.00
2023-05-21T07:29:53.940Z,100.00
2023-05-21T07:32:23.638Z,100.00
2023-05-21T07:34:54.310Z,100.00
2023-05-21T07:37:28.559Z,100.00
2023-05-21T07:40:00.715Z,100.00
2023-05-21T07:42:30.316Z,100.00
2023-05-21T07:44:59.858Z,100.00
2023-05-21T07:47:29.872Z,100.00
2023-05-21T07:50:03.190Z,100.00
2023-05-21T07:52:32.694Z,100.00
2023-05-21T07:55:04.000Z,100.00
2023-05-21T07:57:36.308Z,100.00
2023-05-21T08:00:11.113Z,100.00
2023-05-21T08:02:51.128Z,100.00
2023-05-21T08:05:22.109Z,100.00
2023-05-21T08:07:52.263Z,100.00
2023-05-21T08:10:22.115Z,100.00
2023-05-21T08:12:52.976Z,100.00
2023-05-21T08:15:23.350Z,100.00
2023-05-21T08:17:52.436Z,100.00
2023-05-21T08:20:22.533Z,100.00
2023-05-21T08:22:52.248Z,100.00
2023-05-21T08:25:22.006Z,100.00
2023-05-21T08:27:52.425Z,100.00
2023-05-21T08:30:22.281Z,100.00
2023-05-21T08:32:52.806Z,100.00
2023-05-21T08:35:22.422Z,100.00
2023-05-21T08:38:14.249Z,100.00
2023-05-21T08:40:56.979Z,100.00
2023-05-21T08:43:29.356Z,100.00
2023-05-21T08:46:04.658Z,100.00
2023-05-21T08:48:39.860Z,100.00
2023-05-21T08:51:08.961Z,100.00
2023-05-21T08:53:46.554Z,100.00
2023-05-21T08:56:19.242Z,100.00
2023-05-21T08:58:53.226Z,100.00
2023-05-21T09:01:27.202Z,100.00
2023-05-21T09:04:20.195Z,100.00
2023-05-21T09:06:52.728Z,100.00
2023-05-21T09:09:58.870Z,100.00
2023-05-21T09:12:29.385Z,100.00
2023-05-21T09:15:03.580Z,100.00
2023-05-21T09:17:35.748Z,100.00
2023-05-21T09:20:30.110Z,100.00
2023-05-21T09:23:07.588Z,100.00
2023-05-21T09:25:40.204Z,100.00
2023-05-21T09:28:15.311Z,100.00
2023-05-21T09:30:54.983Z,100.00
2023-05-21T09:33:30.250Z,100.00
2023-05-21T09:36:00.616Z,100.00
2023-05-21T09:38:30.323Z,100.00
2023-05-21T09:40:59.785Z,100.00
2023-05-21T09:43:32.214Z,100.00
2023-05-21T09:46:02.501Z,100.00
2023-05-21T09:48:36.330Z,100.00
2023-05-21T09:51:17.025Z,100.00
2023-05-21T09:53:54.788Z,100.00
2023-05-21T09:56:26.116Z,100.00
2023-05-21T09:58:58.803Z,100.00
2023-05-21T10:01:29.483Z,100.00
2023-05-21T10:04:00.120Z,100.00
2023-05-21T10:06:32.144Z,100.00
2023-05-21T10:09:05.837Z,100.00
2023-05-21T10:11:37.499Z,100.00
2023-05-21T10:14:08.484Z,100.00
2023-05-21T10:16:38.552Z,100.00
2023-05-21T10:19:11.662Z,100.00
2023-05-21T10:21:42.068Z,100.00
2023-05-21T10:24:11.983Z,100.00
2023-05-21T10:26:43.068Z,100.00
2023-05-21T10:29:13.580Z,100.00
2023-05-21T10:31:50.296Z,100.00
2023-05-21T10:34:20.808Z,100.00
2023-05-21T10:36:52.107Z,100.00
2023-05-21T10:39:23.405Z,100.00
2023-05-21T10:42:19.813Z,100.00
2023-05-21T10:45:16.672Z,100.00
2023-05-21T10:48:06.908Z,100.00
2023-05-21T10:51:16.770Z,100.00
2023-05-21T10:54:10.218Z,100.00
2023-05-21T10:57:08.719Z,100.00
2023-05-21T10:59:59.078Z,100.00
2023-05-21T11:02:29.901Z,100.00
2023-05-21T11:05:04.700Z,100.00
2023-05-21T11:08:03.233Z,100.00
2023-05-21T11:10:42.333Z,100.00
2023-05-21T11:13:16.308Z,100.00
2023-05-21T11:16:00.940Z,100.00
2023-05-21T11:18:39.283Z,100.00
2023-05-21T11:21:11.546Z,100.00
2023-05-21T11:23:53.405Z,100.00
2023-05-21T11:26:41.765Z,100.00
2023-05-21T11:29:12.074Z,100.00
2023-05-21T11:31:46.221Z,100.00
2023-05-21T11:34:29.082Z,100.00
2023-05-21T11:37:19.536Z,100.00
2023-05-21T11:39:49.615Z,100.00
2023-05-21T11:42:33.647Z,100.00
2023-05-21T11:45:05.081Z,100.00
2023-05-21T11:47:34.313Z,100.00
2023-05-21T11:50:05.272Z,100.00
2023-05-21T11:52:34.675Z,100.00
2023-05-21T11:55:04.237Z,100.00
2023-05-21T11:57:33.509Z,100.00
2023-05-21T12:00:07.985Z,100.00
2023-05-21T12:02:49.650Z,100.00
2023-05-21T12:05:19.024Z,100.00
2023-05-21T12:07:52.506Z,100.00
2023-05-21T12:10:24.817Z,100.00
2023-05-21T12:12:56.995Z,100.00
2023-05-21T12:15:28.338Z,100.00
2023-05-21T12:17:57.709Z,100.00
2023-05-21T12:20:30.140Z,100.00
2023-05-21T12:23:00.052Z,100.00
2023-05-21T12:25:30.695Z,100.00
2023-05-21T12:28:02.579Z,100.00
2023-05-21T12:30:32.642Z,100.00
2023-05-21T12:33:03.066Z,100.00
2023-05-21T12:35:33.704Z,100.00
2023-05-21T12:38:03.956Z,100.00
2023-05-21T12:40:40.234Z,100.00
2023-05-21T12:43:09.278Z,100.00
2023-05-21T12:45:42.578Z,100.00
2023-05-21T12:48:13.292Z,100.00
2023-05-21T12:50:42.995Z,100.00
2023-05-21T12:53:12.860Z,100.00
2023-05-21T12:55:41.815Z,100.00
2023-05-21T12:58:15.272Z,100.00
2023-05-21T13:00:46.291Z,100.00
2023-05-21T13:03:15.540Z,100.00
2023-05-21T13:05:44.674Z,100.00
2023-05-21T13:08:15.489Z,100.00
2023-05-21T13:10:44.634Z,100.00
2023-05-21T13:13:13.883Z,100.00
2023-05-21T13:15:43.001Z,100.00
2023-05-21T13:18:13.177Z,100.00
2023-05-21T13:20:42.465Z,100.00
2023-05-21T13:23:11.928Z,100.00
2023-05-21T13:25:41.041Z,100.00
2023-05-21T13:28:13.440Z,100.00
2023-05-21T13:30:43.071Z,100.00
2023-05-21T13:33:12.803Z,100.00
2023-05-21T13:35:42.188Z,100.00
2023-05-21T13:38:11.138Z,100.00
2023-05-21T13:40:40.487Z,100.00
2023-05-21T13:43:09.742Z,100.00
2023-05-21T13:45:38.850Z,100.00
2023-05-21T13:48:07.974Z,100.00
2023-05-21T13:50:40.170Z,100.00
2023-05-21T13:53:09.282Z,100.00
2023-05-21T13:55:41.201Z,100.00
2023-05-21T13:58:10.311Z,100.00
2023-05-21T14:00:39.520Z,100.00
2023-05-21T14:03:10.718Z,100.00
2023-05-21T14:05:39.818Z,100.00
2023-05-21T14:08:08.983Z,100.00
2023-05-21T14:10:38.312Z,100.00
2023-05-21T14:13:15.828Z,100.00
2023-05-21T14:15:49.288Z,100.00
2023-05-21T14:18:18.355Z,100.00
2023-05-21T14:20:47.249Z,100.00
2023-05-21T14:23:16.763Z,100.00
2023-05-21T14:25:45.675Z,100.00
2023-05-21T14:28:14.789Z,100.00
2023-05-21T14:30:43.738Z,100.00
2023-05-21T14:33:14.150Z,100.00
2023-05-21T14:35:44.917Z,100.00
2023-05-21T14:38:13.907Z,100.00
2023-05-21T14:40:43.016Z,100.00
2023-05-21T14:43:11.994Z,100.00
2023-05-21T14:45:41.227Z,100.00
2023-05-21T14:48:10.254Z,100.00
2023-05-21T14:50:39.978Z,100.00
2023-05-21T14:53:13.798Z,100.00
2023-05-21T14:55:43.262Z,100.00
2023-05-21T14:58:14.642Z,100.00
2023-05-21T15:01:50.373Z,100.00
2023-05-21T15:04:22.887Z,100.00
2023-05-21T15:06:52.151Z,100.00
2023-05-21T15:09:21.317Z,100.00
2023-05-21T15:11:53.355Z,100.00
2023-05-21T15:14:22.435Z,100.00
2023-05-21T15:16:52.176Z,100.00
2023-05-21T15:19:21.856Z,100.00
2023-05-21T15:21:52.631Z,100.00
2023-05-21T15:24:21.630Z,100.00
2023-05-21T15:26:50.692Z,100.00
2023-05-21T15:29:19.711Z,100.00
2023-05-21T15:31:48.600Z,100.00
2023-05-21T15:34:18.840Z,100.00
2023-05-21T15:36:47.778Z,100.00
2023-05-21T15:39:16.756Z,100.00
2023-05-21T15:41:45.944Z,100.00
2023-05-21T15:44:14.925Z,100.00
2023-05-21T15:46:43.917Z,100.00
2023-05-21T15:49:12.989Z,100.00
2023-05-21T15:51:41.881Z,100.00
2023-05-21T15:54:11.645Z,100.00
2023-05-21T15:56:41.470Z,100.00
2023-05-21T15:59:10.455Z,100.00
2023-05-21T16:01:39.353Z,100.00
2023-05-21T16:04:08.991Z,100.00
2023-05-21T16:06:38.915Z,100.00
2023-05-21T16:09:08.364Z,100.00
2023-05-21T16:11:37.261Z,100.00
2023-05-21T16:14:06.437Z,100.00
2023-05-21T16:16:36.031Z,100.00
2023-05-21T16:19:05.625Z,100.00
2023-05-21T16:21:34.661Z,100.00
2023-05-21T16:24:04.175Z,100.00
2023-05-21T16:26:33.166Z,100.00
2023-05-21T16:29:02.457Z,100.00
2023-05-21T16:31:32.016Z,100.00
2023-05-21T16:34:01.121Z,100.00
2023-05-21T16:36:30.027Z,100.00
2023-05-21T16:38:59.050Z,100.00
2023-05-21T16:41:28.061Z,100.00
2023-05-21T16:43:57.063Z,100.00
2023-05-21T16:46:26.032Z,100.00
2023-05-21T16:48:55.058Z,100.00
2023-05-21T16:51:23.976Z,100.00
2023-05-21T16:53:53.016Z,100.00
2023-05-21T16:56:22.724Z,100.00
2023-05-21T16:58:51.766Z,100.00
2023-05-21T17:01:20.763Z,100.00
2023-05-21T17:03:49.993Z,100.00
2023-05-21T17:06:19.063Z,100.00
2023-05-21T17:08:48.188Z,100.00
2023-05-21T17:11:18.594Z,100.00
2023-05-21T17:13:48.952Z,100.00
2023-05-21T17:16:17.990Z,100.00
2023-05-21T17:18:46.893Z,100.00
2023-05-21T17:21:19.270Z,100.00
2023-05-21T17:23:48.296Z,100.00
2023-05-21T17:26:17.167Z,100.00
2023-05-21T17:28:46.141Z,100.00
2023-05-21T17:31:15.349Z,100.00
2023-05-21T17:33:44.521Z,100.00
2023-05-21T17:36:13.728Z,100.00
2023-05-21T17:38:42.782Z,100.00
2023-05-21T17:41:11.802Z,100.00
2023-05-21T17:43:40.772Z,100.00
2023-05-21T17:46:10.228Z,100.00
2023-05-21T17:48:39.334Z,100.00
2023-05-21T17:51:08.252Z,100.00
2023-05-21T17:53:37.207Z,100.00
2023-05-21T17:56:07.092Z,100.00
2023-05-21T17:58:36.177Z,100.00
2023-05-21T18:01:05.278Z,100.00
2023-05-21T18:03:34.853Z,100.00
2023-05-21T18:06:03.759Z,100.00
2023-05-21T18:08:32.999Z,100.00
2023-05-21T18:11:02.488Z,100.00
2023-05-21T18:13:31.691Z,100.00
2023-05-21T18:16:00.774Z,100.00
2023-05-21T18:18:29.701Z,100.00
2023-05-21T18:20:58.792Z,100.00
2023-05-21T18:23:28.804Z,100.00
2023-05-21T18:25:58.341Z,100.00
2023-05-21T18:28:30.094Z,100.00
2023-05-21T18:31:01.775Z,100.00
2023-05-21T18:33:31.774Z,100.00
2023-05-21T18:36:01.092Z,100.00
2023-05-21T18:38:30.022Z,100.00
2023-05-21T18:40:58.924Z,100.00
2023-05-21T18:43:27.970Z,100.00
2023-05-21T18:45:56.953Z,100.00
2023-05-21T18:48:25.947Z,100.00
2023-05-21T18:50:54.937Z,100.00
2023-05-21T18:53:23.924Z,100.00
2023-05-21T18:55:52.882Z,100.00
2023-05-21T18:58:21.895Z,100.00
2023-05-21T19:00:50.822Z,100.00
2023-05-21T19:03:19.805Z,100.00
2023-05-21T19:05:48.896Z,100.00
2023-05-21T19:08:18.012Z,100.00
2023-05-21T19:10:46.885Z,100.00
2023-05-21T19:13:15.987Z,100.00
2023-05-21T19:15:47.739Z,100.00
2023-05-21T19:18:18.034Z,100.00
2023-05-21T19:20:47.138Z,100.00
2023-05-21T19:23:16.523Z,100.00
2023-05-21T19:25:45.543Z,100.00
2023-05-21T19:28:14.396Z,100.00
2023-05-21T19:30:43.414Z,100.00
2023-05-21T19:33:12.874Z,100.00
2023-05-21T19:35:43.941Z,100.00
2023-05-21T19:38:13.113Z,100.00
2023-05-21T19:40:42.167Z,100.00
2023-05-21T19:43:11.229Z,100.00
2023-05-21T19:45:40.429Z,100.00
2023-05-21T19:48:09.483Z,100.00
2023-05-21T19:50:38.705Z,100.00
2023-05-21T19:53:08.312Z,100.00
2023-05-21T19:55:38.288Z,100.00
2023-05-21T19:58:07.294Z,100.00
2023-05-21T20:00:36.695Z,100.00
2023-05-21T20:03:07.648Z,100.00
2023-05-21T20:05:37.027Z,100.00
2023-05-21T20:08:06.629Z,100.00
2023-05-21T20:10:36.610Z,100.00
2023-05-21T20:13:05.712Z,100.00
2023-05-21T20:15:35.146Z,100.00
2023-05-21T20:18:04.713Z,100.00
2023-05-21T20:20:37.745Z,100.00
2023-05-21T20:23:07.328Z,100.00
2023-05-21T20:25:36.727Z,100.00
2023-05-21T20:28:06.385Z,100.00
2023-05-21T20:30:52.247Z,100.00
2023-05-21T20:33:21.707Z,100.00
2023-05-21T20:35:50.804Z,100.00
2023-05-21T20:38:21.878Z,100.00
2023-05-21T20:40:50.838Z,100.00
2023-05-21T20:43:20.823Z,100.00
2023-05-21T20:45:50.075Z,100.00
2023-05-21T20:48:19.683Z,100.00
2023-05-21T20:50:50.497Z,100.00
2023-05-21T20:53:20.292Z,100.00
2023-05-21T20:55:49.325Z,100.00
2023-05-21T20:58:18.307Z,100.00
2023-05-21T21:00:47.403Z,100.00
2023-05-21T21:03:18.609Z,100.00
2023-05-21T21:05:47.689Z,100.00
2023-05-21T21:08:17.022Z,100.00
2023-05-21T21:10:47.706Z,100.00
2023-05-21T21:13:16.832Z,100.00
2023-05-21T21:15:45.755Z,100.00
2023-05-21T21:18:15.333Z,100.00
2023-05-21T21:20:48.688Z,100.00
2023-05-21T21:23:17.830Z,100.00
2023-05-21T21:25:47.111Z,100.00
2023-05-21T21:28:16.242Z,100.00
2023-05-21T21:30:45.941Z,100.00
2023-05-21T21:33:17.125Z,100.00
2023-05-21T21:35:46.581Z,100.00
2023-05-21T21:38:15.745Z,100.00
2023-05-21T21:40:44.782Z,100.00
2023-05-21T21:43:13.665Z,100.00
2023-05-21T21:45:45.906Z,100.00
2023-05-21T21:48:14.970Z,100.00
2023-05-21T21:50:43.882Z,100.00
2023-05-21T21:53:14.822Z,100.00
2023-05-21T21:55:43.899Z,100.00
2023-05-21T21:58:13.166Z,100.00
2023-05-21T22:00:42.170Z,100.00
2023-05-21T22:03:14.589Z,100.00
2023-05-21T22:05:44.143Z,100.00
2023-05-21T22:08:13.344Z,100.00
2023-05-21T22:10:42.360Z,100.00
2023-05-21T22:13:13.745Z,100.00
2023-05-21T22:15:42.721Z,100.00
2023-05-21T22:18:12.910Z,100.00
2023-05-21T22:20:42.180Z,100.00
2023-05-21T22:23:11.098Z,100.00
2023-05-21T22:25:40.154Z,100.00
2023-05-21T22:28:09.354Z,100.00
2023-05-21T22:30:40.208Z,100.00
2023-05-21T22:33:09.600Z,100.00
2023-05-21T22:35:38.502Z,100.00
2023-05-21T22:38:07.462Z,100.00
2023-05-21T22:40:36.975Z,100.00
2023-05-21T22:43:06.522Z,100.00
2023-05-21T22:45:36.746Z,100.00
2023-05-21T22:48:09.408Z,100.00
2023-05-21T22:50:39.577Z,100.00
2023-05-21T22:53:11.310Z,100.00
2023-05-21T22:55:40.477Z,100.00
2023-05-21T22:58:09.391Z,100.00
2023-05-21T23:00:38.679Z,100.00
2023-05-21T23:03:07.850Z,100.00
2023-05-21T23:05:37.038Z,100.00
2023-05-21T23:08:06.345Z,100.00
2023-05-21T23:10:37.328Z,100.00
2023-05-21T23:13:06.821Z,100.00
2023-05-21T23:15:39.536Z,100.00
2023-05-21T23:18:09.286Z,100.00
2023-05-21T23:20:41.975Z,100.00
2023-05-21T23:23:11.957Z,100.00
2023-05-21T23:25:40.890Z,100.00
2023-05-21T23:28:10.254Z,100.00
2023-05-21T23:30:39.554Z,100.00
2023-05-21T23:33:08.870Z,100.00
2023-05-21T23:35:37.861Z,100.00
2023-05-21T23:38:06.827Z,100.00
2023-05-21T23:40:36.099Z,100.00
2023-05-21T23:43:05.704Z,100.00
2023-05-21T23:45:34.953Z,100.00
2023-05-21T23:48:04.153Z,100.00
2023-05-21T23:50:33.468Z,100.00
2023-05-21T23:53:02.857Z,100.00
2023-05-21T23:55:31.770Z,100.00
2023-05-21T23:58:00.946Z,100.00
